Time;durP1;ratioP1;P1;durP2;ratioP2;P2;SDS_P1;SDS_P2;PMS_P1;PMS_P2;Temp;Humidity;BMP_temperature;BMP_pressure;BME280_temperature;BME280_humidity;BME280_pressure;Samples;Min_cycle;Max_cycle;Signal;HPM_P1;HPM_P2
2022/06/01 00:01:23;;;;;;;6.43;4.70;;;9.70;99.90;;;;;;4197667;28;20270;-68
2022/06/01 00:03:24;;;;;;;4.93;4.40;;;9.70;99.90;;;;;;4197828;28;20714;-68
2022/06/01 00:05:25;;;;;;;5.03;3.70;;;9.70;99.90;;;;;;4196732;28;20297;-67
2022/06/01 00:07:26;;;;;;;4.43;4.00;;;9.70;99.90;;;;;;4197704;28;20178;-68
2022/06/01 00:09:26;;;;;;;5.47;3.93;;;9.60;99.90;;;;;;4197458;28;20604;-67
2022/06/01 00:11:27;;;;;;;5.17;4.57;;;9.70;99.90;;;;;;4197465;28;20715;-68
2022/06/01 00:13:28;;;;;;;5.80;4.53;;;9.60;99.90;;;;;;4197549;28;20680;-68
2022/06/01 00:15:30;;;;;;;5.20;4.60;;;9.60;99.90;;;;;;4195610;28;20288;-68
2022/06/01 00:17:31;;;;;;;7.47;4.80;;;9.60;99.90;;;;;;4197271;28;20184;-68
2022/06/01 00:19:31;;;;;;;4.70;4.20;;;9.60;99.90;;;;;;4197689;28;20279;-68
2022/06/01 00:21:32;;;;;;;5.87;4.83;;;9.60;99.90;;;;;;4196956;28;20230;-68
2022/06/01 00:23:32;;;;;;;4.83;4.27;;;9.70;99.90;;;;;;4197354;28;20316;-67
2022/06/01 00:25:33;;;;;;;5.00;4.50;;;9.70;99.90;;;;;;4196668;28;20216;-68
2022/06/01 00:27:36;;;;;;;4.87;4.40;;;9.70;99.90;;;;;;4197337;28;20629;-68
2022/06/01 00:29:37;;;;;;;6.87;4.97;;;9.60;99.90;;;;;;4197455;28;20633;-68
2022/06/01 00:31:37;;;;;;;7.17;4.87;;;9.50;99.90;;;;;;4197196;28;20644;-68
2022/06/01 00:33:38;;;;;;;5.93;4.33;;;9.50;99.90;;;;;;4197121;28;20202;-68
2022/06/01 00:35:38;;;;;;;6.17;4.60;;;9.50;99.90;;;;;;4196631;28;20540;-68
2022/06/01 00:37:39;;;;;;;5.33;4.30;;;9.50;99.90;;;;;;4197117;28;20778;-67
2022/06/01 00:39:40;;;;;;;4.33;3.90;;;9.50;99.90;;;;;;4197099;28;20568;-67
2022/06/01 00:41:40;;;;;;;5.43;4.43;;;9.40;99.90;;;;;;4197184;28;20182;-67
2022/06/01 00:43:45;;;;;;;8.00;4.63;;;9.30;99.90;;;;;;4196883;28;20204;-67
2022/06/01 00:45:45;;;;;;;5.87;3.93;;;9.30;99.90;;;;;;4195220;28;20228;-67
2022/06/01 00:47:47;;;;;;;6.27;4.10;;;9.30;99.90;;;;;;4196986;28;20526;-67
2022/06/01 00:50:15;;;;;;;5.63;4.17;;;9.30;99.90;;;;;;4196967;28;20186;-67
2022/06/01 00:52:16;;;;;;;5.63;5.00;;;9.30;99.90;;;;;;4196897;28;20233;-67
2022/06/01 00:54:17;;;;;;;5.10;4.60;;;9.40;99.90;;;;;;4196740;28;20618;-67
2022/06/01 00:56:30;;;;;;;6.33;4.40;;;9.40;99.90;;;;;;4196226;28;20185;-67
2022/06/01 00:58:36;;;;;;;6.77;5.10;;;9.40;99.90;;;;;;4196686;28;20163;-67
2022/06/01 01:00:41;;;;;;;5.20;4.10;;;9.40;99.90;;;;;;4196694;28;20547;-67
2022/06/01 01:02:41;;;;;;;4.83;4.40;;;9.40;99.90;;;;;;4196386;28;20505;-67
2022/06/01 01:04:42;;;;;;;8.20;5.03;;;9.40;99.90;;;;;;4196379;28;20672;-67
2022/06/01 01:06:46;;;;;;;5.20;4.60;;;9.20;99.90;;;;;;4196085;28;20180;-67
2022/06/01 01:08:47;;;;;;;5.83;4.33;;;9.30;99.90;;;;;;4196235;28;20185;-67
2022/06/01 01:10:48;;;;;;;6.50;5.20;;;9.30;99.90;;;;;;4196657;28;20543;-67
2022/06/01 01:13:05;;;;;;;5.10;4.60;;;9.30;99.90;;;;;;4196386;28;20191;-67
2022/06/01 01:15:07;;;;;;;5.70;4.73;;;9.30;99.90;;;;;;4196217;28;20471;-67
2022/06/01 01:17:08;;;;;;;4.27;3.80;;;9.40;99.90;;;;;;4196107;28;20688;-67
2022/06/01 01:19:17;;;;;;;6.13;3.97;;;9.20;99.90;;;;;;4196552;28;20259;-67
2022/06/01 01:21:28;;;;;;;4.43;3.90;;;9.20;99.90;;;;;;4196212;28;20198;-67
2022/06/01 01:23:42;;;;;;;4.70;4.17;;;9.20;99.90;;;;;;4196456;28;20209;-67
2022/06/01 01:25:42;;;;;;;9.57;4.60;;;9.20;99.90;;;;;;4195533;28;20210;-67
2022/06/01 01:27:45;;;;;;;6.07;4.60;;;9.10;99.90;;;;;;4196318;28;20183;-67
2022/06/01 01:29:46;;;;;;;5.17;4.33;;;9.20;99.90;;;;;;4196217;28;20181;-67
2022/06/01 01:31:46;;;;;;;6.47;4.97;;;9.30;99.90;;;;;;4196362;28;20180;-67
2022/06/01 01:33:50;;;;;;;5.87;4.50;;;9.30;99.90;;;;;;4196088;28;20191;-69
2022/06/01 01:35:53;;;;;;;8.90;4.60;;;9.30;99.90;;;;;;4195291;28;21013;-68
2022/06/01 01:37:54;;;;;;;5.13;4.63;;;9.40;99.90;;;;;;4195857;28;20533;-68
2022/06/01 01:39:55;;;;;;;5.57;4.80;;;9.30;99.90;;;;;;4195652;28;20191;-68
2022/06/01 01:41:56;;;;;;;4.87;4.43;;;9.30;99.90;;;;;;4195868;28;20181;-68
2022/06/01 01:44:01;;;;;;;4.93;4.40;;;9.30;99.90;;;;;;4195983;28;20295;-68
2022/06/01 01:46:03;;;;;;;4.77;4.27;;;9.20;99.90;;;;;;4195147;28;20234;-68
2022/06/01 01:48:04;;;;;;;6.47;4.37;;;9.40;99.90;;;;;;4196004;28;20204;-68
2022/06/01 01:50:09;;;;;;;5.10;4.50;;;9.40;99.90;;;;;;4195922;28;20413;-68
2022/06/01 01:52:16;;;;;;;8.73;4.40;;;9.50;99.90;;;;;;4195744;28;20705;-68
2022/06/01 01:54:39;;;;;;;4.93;4.40;;;9.50;99.90;;;;;;4195806;28;20445;-68
2022/06/01 01:57:22;;;;;;;6.37;4.20;;;9.60;99.90;;;;;;4194816;28;20230;-68
2022/06/01 02:00:05;;;;;;;7.00;4.47;;;9.60;99.90;;;;;;4190435;28;20195;-68
2022/06/01 02:02:13;;;;;;;4.83;4.27;;;9.50;99.90;;;;;;4190421;28;20243;-68
2022/06/01 02:06:46;;;;;;;5.20;4.70;;;9.50;99.90;;;;;;4195200;28;20398;-68
2022/06/01 02:08:57;;;;;;;5.63;4.27;;;9.50;99.90;;;;;;4195446;28;20398;-68
2022/06/01 02:13:24;;;;;;;4.87;4.03;;;9.60;99.90;;;;;;4195887;28;20212;-68
2022/06/01 02:15:33;;;;;;;5.23;4.03;;;9.40;99.90;;;;;;4194591;28;20272;-68
2022/06/01 02:17:48;;;;;;;4.40;4.00;;;9.50;99.90;;;;;;4195253;28;20182;-68
2022/06/01 02:19:59;;;;;;;4.43;3.60;;;9.40;99.90;;;;;;4194956;28;20770;-68
2022/06/01 02:22:00;;;;;;;5.80;4.00;;;9.30;99.90;;;;;;4195258;28;20224;-68
2022/06/01 02:24:01;;;;;;;5.50;4.27;;;9.20;99.90;;;;;;4195225;28;20209;-69
2022/06/01 02:26:03;;;;;;;4.57;4.10;;;9.20;99.90;;;;;;4194410;28;20299;-68
2022/06/01 02:28:06;;;;;;;6.13;4.47;;;9.10;99.90;;;;;;4195293;28;20203;-68
2022/06/01 02:30:14;;;;;;;7.00;4.50;;;9.10;99.90;;;;;;4187484;28;20579;-68
2022/06/01 02:32:17;;;;;;;5.10;4.60;;;9.20;99.90;;;;;;4194820;28;20912;-68
2022/06/01 02:34:19;;;;;;;4.33;3.93;;;9.10;99.90;;;;;;4195200;28;20666;-68
2022/06/01 02:36:22;;;;;;;5.17;4.40;;;9.10;99.90;;;;;;4194530;28;20414;-68
2022/06/01 02:38:39;;;;;;;6.53;5.00;;;9.20;99.90;;;;;;4194918;28;20422;-68
2022/06/01 02:40:40;;;;;;;5.93;4.80;;;9.10;99.90;;;;;;4195048;28;20421;-68
2022/06/01 02:42:47;;;;;;;5.60;4.50;;;9.10;99.90;;;;;;4194930;28;20419;-68
2022/06/01 02:44:47;;;;;;;6.23;4.87;;;9.10;99.90;;;;;;4193938;28;20200;-68
2022/06/01 02:46:47;;;;;;;5.93;4.70;;;9.10;99.90;;;;;;4193790;28;20463;-68
2022/06/01 02:48:48;;;;;;;6.43;5.10;;;9.00;99.90;;;;;;4195010;28;20180;-68
2022/06/01 02:50:48;;;;;;;7.67;6.07;;;9.00;99.90;;;;;;4195033;28;20595;-68
2022/06/01 02:52:49;;;;;;;5.83;5.20;;;8.90;99.90;;;;;;4194967;28;20207;-68
2022/06/01 02:54:51;;;;;;;5.93;4.83;;;9.00;99.90;;;;;;4195077;28;20563;-68
2022/06/01 02:56:52;;;;;;;5.40;4.90;;;9.10;99.90;;;;;;4194318;28;20184;-68
2022/06/01 02:58:52;;;;;;;5.60;5.00;;;9.10;99.90;;;;;;4194980;28;20809;-68
2022/06/01 03:00:53;;;;;;;7.30;4.97;;;9.20;99.90;;;;;;4194955;28;20183;-68
2022/06/01 03:02:59;;;;;;;7.87;4.57;;;9.10;99.90;;;;;;4194804;28;20251;-68
2022/06/01 03:05:00;;;;;;;5.97;4.90;;;9.10;99.90;;;;;;4195116;28;20577;-68
2022/06/01 03:07:02;;;;;;;6.23;4.77;;;9.10;99.90;;;;;;4194418;28;20410;-68
2022/06/01 03:09:02;;;;;;;6.47;4.97;;;9.00;99.90;;;;;;4196184;28;20386;-68
2022/06/01 03:11:03;;;;;;;7.50;5.47;;;9.00;99.90;;;;;;4198454;28;20420;-68
2022/06/01 03:13:04;;;;;;;6.03;4.30;;;9.00;99.90;;;;;;4198244;28;20199;-68
2022/06/01 03:15:07;;;;;;;7.70;5.03;;;8.90;99.90;;;;;;4198041;28;20551;-68
2022/06/01 03:17:08;;;;;;;6.07;4.43;;;8.80;99.90;;;;;;4197941;28;20173;-68
2022/06/01 03:19:08;;;;;;;7.13;4.63;;;8.80;99.90;;;;;;4198117;28;20172;-67
2022/06/01 03:21:09;;;;;;;5.70;5.03;;;8.80;99.90;;;;;;4198138;28;20674;-68
2022/06/01 03:23:09;;;;;;;6.80;5.00;;;8.80;99.90;;;;;;4198099;28;20220;-68
2022/06/01 03:25:14;;;;;;;5.33;4.83;;;8.70;99.90;;;;;;4197718;28;20750;-68
2022/06/01 03:27:14;;;;;;;8.27;5.27;;;8.80;99.90;;;;;;4197617;28;20185;-68
2022/06/01 03:29:15;;;;;;;6.87;5.23;;;8.70;99.90;;;;;;4197793;28;20433;-68
2022/06/01 03:31:16;;;;;;;7.87;5.43;;;8.70;99.90;;;;;;4197986;28;20185;-68
2022/06/01 03:33:17;;;;;;;5.53;4.97;;;8.70;99.90;;;;;;4198358;28;20231;-68
2022/06/01 03:35:21;;;;;;;6.67;5.20;;;8.70;99.90;;;;;;4197646;28;20475;-68
2022/06/01 03:37:21;;;;;;;6.70;4.77;;;8.70;99.90;;;;;;4197490;28;20191;-68
2022/06/01 03:39:22;;;;;;;7.30;5.67;;;8.70;99.90;;;;;;4197743;28;20788;-67
2022/06/01 03:41:27;;;;;;;5.97;5.17;;;8.60;99.90;;;;;;4197846;28;20184;-68
2022/06/01 03:43:27;;;;;;;7.03;5.23;;;8.50;99.90;;;;;;4198150;28;20347;-68
2022/06/01 03:47:49;;;;;;;6.30;5.70;;;8.50;99.90;;;;;;4198695;28;20650;-68
2022/06/01 03:49:50;;;;;;;6.43;5.40;;;8.60;99.90;;;;;;4198409;28;21042;-68
2022/06/01 03:51:50;;;;;;;8.33;6.20;;;8.50;99.90;;;;;;4198406;28;20423;-68
2022/06/01 03:53:51;;;;;;;7.60;5.40;;;8.60;99.90;;;;;;4198246;28;20623;-68
2022/06/01 03:55:53;;;;;;;5.97;5.37;;;8.60;99.90;;;;;;4196114;28;20180;-68
2022/06/01 03:57:53;;;;;;;6.23;5.47;;;8.60;99.90;;;;;;4198370;28;20185;-68
2022/06/01 03:59:54;;;;;;;6.47;5.00;;;8.60;99.90;;;;;;4198007;28;20465;-68
2022/06/01 04:01:54;;;;;;;9.27;5.83;;;8.60;99.90;;;;;;4198277;28;20207;-68
2022/06/01 04:03:55;;;;;;;9.00;6.30;;;8.60;99.90;;;;;;4198410;28;20641;-68
2022/06/01 04:05:55;;;;;;;6.40;5.23;;;8.60;99.90;;;;;;4197655;28;20223;-68
2022/06/01 04:07:56;;;;;;;6.03;5.03;;;8.60;99.90;;;;;;4198322;28;20220;-67
2022/06/01 04:09:56;;;;;;;6.33;5.43;;;8.50;99.90;;;;;;4199148;28;20176;-68
2022/06/01 04:11:57;;;;;;;7.47;5.30;;;8.50;99.90;;;;;;4198679;28;20179;-68
2022/06/01 04:13:58;;;;;;;7.27;5.30;;;8.50;99.90;;;;;;4198464;28;20809;-68
2022/06/01 04:15:58;;;;;;;6.03;5.10;;;8.50;99.90;;;;;;4197063;28;20618;-68
2022/06/01 04:17:59;;;;;;;7.47;5.03;;;8.50;99.90;;;;;;4198235;28;20357;-68
2022/06/01 04:19:59;;;;;;;7.80;5.23;;;8.60;99.90;;;;;;4198007;28;20185;-68
2022/06/01 04:22:00;;;;;;;6.50;4.47;;;8.60;99.90;;;;;;4198445;28;20677;-67
2022/06/01 04:24:03;;;;;;;5.43;4.73;;;8.70;99.90;;;;;;4198228;28;21002;-68
2022/06/01 04:26:03;;;;;;;5.47;4.90;;;8.70;99.90;;;;;;4197331;28;20849;-68
2022/06/01 04:28:04;;;;;;;4.90;4.40;;;8.80;99.90;;;;;;4197750;28;20456;-68
2022/06/01 04:30:11;;;;;;;5.63;4.67;;;8.80;99.90;;;;;;4197677;28;20183;-68
2022/06/01 04:32:15;;;;;;;9.60;5.50;;;8.80;99.90;;;;;;4197347;28;20877;-68
2022/06/01 04:34:16;;;;;;;6.03;4.97;;;8.80;99.90;;;;;;4196736;28;20207;-68
2022/06/01 04:36:16;;;;;;;6.27;4.90;;;8.80;99.90;;;;;;4196294;28;20909;-68
2022/06/01 04:38:18;;;;;;;5.53;4.97;;;8.90;99.90;;;;;;4196633;28;20198;-68
2022/06/01 04:40:21;;;;;;;7.57;5.23;;;8.90;99.90;;;;;;4196659;28;20713;-68
2022/06/01 04:42:22;;;;;;;6.37;4.73;;;8.90;99.90;;;;;;4196721;28;20497;-69
2022/06/01 04:44:23;;;;;;;5.33;4.77;;;8.90;99.90;;;;;;4196736;28;20443;-68
2022/06/01 04:46:24;;;;;;;5.23;4.47;;;8.90;99.90;;;;;;4194607;28;20275;-69
2022/06/01 04:48:25;;;;;;;6.13;4.63;;;9.00;99.90;;;;;;4196553;28;20214;-68
2022/06/01 04:50:25;;;;;;;6.10;4.30;;;9.00;99.90;;;;;;4196617;28;20234;-68
2022/06/01 04:52:26;;;;;;;5.50;4.97;;;9.00;99.90;;;;;;4196605;28;20195;-68
2022/06/01 04:54:26;;;;;;;8.03;4.97;;;9.00;99.90;;;;;;4196407;28;20247;-68
2022/06/01 04:56:27;;;;;;;5.40;4.90;;;9.10;99.90;;;;;;4195885;28;20214;-68
2022/06/01 04:58:27;;;;;;;5.90;4.70;;;9.10;99.90;;;;;;4196658;28;20664;-68
2022/06/01 05:00:28;;;;;;;5.13;4.60;;;9.10;99.90;;;;;;4196350;28;20183;-69
2022/06/01 05:02:28;;;;;;;4.90;4.17;;;9.10;99.90;;;;;;4196405;28;20233;-69
2022/06/01 05:04:29;;;;;;;6.93;4.43;;;9.00;99.90;;;;;;4196379;28;20197;-69
2022/06/01 05:06:29;;;;;;;5.90;4.50;;;9.10;99.90;;;;;;4195634;28;20183;-68
2022/06/01 05:08:30;;;;;;;7.47;4.67;;;9.00;99.90;;;;;;4196283;28;20725;-68
2022/06/01 05:10:31;;;;;;;4.93;4.43;;;9.00;99.90;;;;;;4196197;28;20184;-69
2022/06/01 05:12:32;;;;;;;6.13;4.30;;;9.10;99.90;;;;;;4196059;28;20273;-68
2022/06/01 05:14:32;;;;;;;5.90;4.40;;;9.20;99.90;;;;;;4196425;28;20178;-68
2022/06/01 05:16:33;;;;;;;5.47;4.73;;;9.20;99.90;;;;;;4195527;28;20851;-68
2022/06/01 05:18:34;;;;;;;4.57;3.80;;;9.20;99.90;;;;;;4195966;28;20174;-68
2022/06/01 05:20:34;;;;;;;5.80;3.90;;;9.30;99.90;;;;;;4196175;28;20201;-68
2022/06/01 05:22:35;;;;;;;4.80;4.30;;;9.50;99.90;;;;;;4194757;28;20209;-69
2022/06/01 05:24:36;;;;;;;5.70;4.17;;;9.50;99.90;;;;;;4196074;28;20190;-68
2022/06/01 05:26:36;;;;;;;4.00;3.50;;;9.60;99.90;;;;;;4195649;28;20258;-68
2022/06/01 05:28:37;;;;;;;6.10;4.00;;;9.90;99.90;;;;;;4195986;28;20226;-68
2022/06/01 05:30:38;;;;;;;6.87;4.27;;;9.90;99.90;;;;;;4196008;28;20545;-69
2022/06/01 05:32:38;;;;;;;5.07;3.90;;;9.90;99.90;;;;;;4195299;28;20194;-68
2022/06/01 05:34:39;;;;;;;6.63;4.60;;;9.80;99.90;;;;;;4196055;28;20183;-69
2022/06/01 05:36:40;;;;;;;6.53;4.00;;;9.80;99.90;;;;;;4195225;28;20186;-68
2022/06/01 05:38:42;;;;;;;4.23;3.60;;;9.80;99.90;;;;;;4195215;28;20259;-69
2022/06/01 05:40:42;;;;;;;6.30;4.30;;;9.80;99.90;;;;;;4195761;28;20593;-69
2022/06/01 05:42:43;;;;;;;6.77;4.47;;;10.00;99.90;;;;;;4195699;28;20187;-68
2022/06/01 05:44:44;;;;;;;6.10;4.20;;;10.00;99.90;;;;;;4195516;28;20557;-69
2022/06/01 05:46:44;;;;;;;4.80;4.13;;;10.10;99.90;;;;;;4195142;28;20848;-69
2022/06/01 05:48:45;;;;;;;6.37;4.07;;;10.10;99.90;;;;;;4195536;28;20175;-69
2022/06/01 05:50:46;;;;;;;7.20;5.27;;;10.10;99.90;;;;;;4195405;28;20179;-69
2022/06/01 05:52:46;;;;;;;6.50;4.83;;;10.10;99.90;;;;;;4195578;28;20579;-68
2022/06/01 05:54:48;;;;;;;7.20;4.70;;;10.10;99.90;;;;;;4195597;28;20183;-69
2022/06/01 05:56:48;;;;;;;8.57;3.30;;;10.20;99.90;;;;;;4195255;28;20544;-69
2022/06/01 05:58:50;;;;;;;3.87;3.43;;;10.30;99.90;;;;;;4195652;28;20186;-69
2022/06/01 06:00:52;;;;;;;4.67;4.13;;;10.50;99.90;;;;;;4195488;28;20271;-69
2022/06/01 06:02:52;;;;;;;4.73;4.10;;;10.60;99.90;;;;;;4195556;28;20562;-68
2022/06/01 06:04:53;;;;;;;4.57;4.00;;;10.70;99.90;;;;;;4195350;28;20213;-69
2022/06/01 06:06:54;;;;;;;3.50;3.20;;;10.70;99.90;;;;;;4194945;28;20665;-69
2022/06/01 06:08:59;;;;;;;5.20;3.50;;;10.90;99.90;;;;;;4195564;28;20183;-69
2022/06/01 06:11:00;;;;;;;5.60;3.13;;;11.00;99.90;;;;;;4195520;28;20192;-68
2022/06/01 06:13:00;;;;;;;3.27;2.97;;;11.10;99.90;;;;;;4195648;28;20228;-68
2022/06/01 06:15:01;;;;;;;6.47;3.17;;;11.30;99.90;;;;;;4195382;28;20311;-69
2022/06/01 06:17:01;;;;;;;5.13;2.90;;;11.30;99.90;;;;;;4194984;28;20183;-68
2022/06/01 06:19:03;;;;;;;3.20;2.90;;;11.40;99.90;;;;;;4195330;28;20650;-68
2022/06/01 06:21:04;;;;;;;5.10;3.23;;;11.40;99.90;;;;;;4195151;28;20195;-69
2022/06/01 06:23:05;;;;;;;5.60;2.70;;;11.50;99.90;;;;;;4195180;28;20202;-69
2022/06/01 06:25:06;;;;;;;3.77;2.30;;;11.70;99.90;;;;;;4194517;28;20693;-69
2022/06/01 06:27:06;;;;;;;2.90;2.20;;;12.00;99.10;;;;;;4194587;28;20635;-68
2022/06/01 06:29:09;;;;;;;4.47;2.60;;;12.20;98.20;;;;;;4195215;28;20559;-69
2022/06/01 06:31:09;;;;;;;2.23;1.83;;;12.30;97.70;;;;;;4194973;28;20180;-69
2022/06/01 06:33:10;;;;;;;3.17;1.47;;;12.70;90.40;;;;;;4195369;28;20769;-69
2022/06/01 06:35:11;;;;;;;3.70;1.80;;;13.30;78.70;;;;;;4195198;28;20188;-69
2022/06/01 06:37:12;;;;;;;2.67;1.60;;;13.40;76.90;;;;;;4194800;28;20176;-68
2022/06/01 06:39:13;;;;;;;2.53;1.50;;;13.50;78.50;;;;;;4195169;28;20186;-67
2022/06/01 06:41:14;;;;;;;1.40;1.30;;;13.70;69.70;;;;;;4195355;28;20546;-68
2022/06/01 06:43:14;;;;;;;1.40;1.30;;;14.00;68.40;;;;;;4194629;28;20200;-68
2022/06/01 06:45:15;;;;;;;1.47;1.30;;;14.10;68.90;;;;;;4195006;28;20203;-68
2022/06/01 06:47:16;;;;;;;1.50;1.40;;;14.10;68.10;;;;;;4194980;28;20225;-68
2022/06/01 06:49:17;;;;;;;1.63;1.40;;;14.10;68.00;;;;;;4195312;28;20184;-68
2022/06/01 06:51:19;;;;;;;1.93;1.40;;;14.30;67.30;;;;;;4195124;28;20171;-68
2022/06/01 06:53:19;;;;;;;4.67;1.83;;;14.40;69.20;;;;;;4194946;28;20218;-68
2022/06/01 06:55:20;;;;;;;1.80;1.30;;;14.50;66.70;;;;;;4194542;28;20274;-68
2022/06/01 06:57:21;;;;;;;1.90;1.73;;;14.60;62.50;;;;;;4195185;28;20190;-68
2022/06/01 06:59:21;;;;;;;2.53;1.43;;;14.80;63.90;;;;;;4194929;28;20733;-68
2022/06/01 07:01:22;;;;;;;2.13;1.30;;;14.90;62.30;;;;;;4194936;28;20180;-68
2022/06/01 07:03:22;;;;;;;1.50;1.40;;;15.00;62.70;;;;;;4194871;28;20274;-68
2022/06/01 07:07:42;;;;;;;4.20;1.43;;;15.10;60.50;;;;;;4194991;28;20653;-68
2022/06/01 07:09:43;;;;;;;1.63;1.20;;;15.20;59.90;;;;;;4194729;28;20172;-68
2022/06/01 07:11:43;;;;;;;1.90;1.57;;;15.30;58.50;;;;;;4194920;28;20726;-68
2022/06/01 07:13:44;;;;;;;2.67;1.40;;;15.30;59.90;;;;;;4194703;28;20202;-68
2022/06/01 07:15:44;;;;;;;3.83;1.57;;;15.40;59.70;;;;;;4194244;28;20643;-68
2022/06/01 07:17:45;;;;;;;4.33;1.27;;;15.50;60.30;;;;;;4194831;28;20183;-68
2022/06/01 07:19:45;;;;;;;2.50;1.40;;;15.60;58.20;;;;;;4194785;28;20206;-68
2022/06/01 07:21:46;;;;;;;1.80;1.30;;;15.80;58.30;;;;;;4194946;28;20282;-68
2022/06/01 07:23:48;;;;;;;2.30;1.50;;;15.80;50.80;;;;;;4194849;28;20211;-68
2022/06/01 07:25:49;;;;;;;3.80;1.70;;;15.70;52.70;;;;;;4193901;28;20566;-68
2022/06/01 07:27:49;;;;;;;3.60;1.60;;;15.80;54.60;;;;;;4194631;28;20183;-68
2022/06/01 07:29:50;;;;;;;3.60;1.93;;;16.00;51.80;;;;;;4194580;28;20203;-68
2022/06/01 07:31:51;;;;;;;2.07;1.43;;;16.10;52.00;;;;;;4194245;28;20179;-68
2022/06/01 07:33:51;;;;;;;1.30;1.20;;;16.20;51.70;;;;;;4194570;28;20686;-68
2022/06/01 07:35:52;;;;;;;2.33;1.43;;;16.20;51.90;;;;;;4194095;28;20656;-68
2022/06/01 07:43:07;;;;;;;2.67;1.53;;;16.80;48.50;;;;;;4179123;28;20199;-68
2022/06/01 07:45:08;;;;;;;1.70;1.23;;;16.80;48.30;;;;;;4194246;28;20290;-68
2022/06/01 07:47:10;;;;;;;2.37;1.23;;;16.80;47.50;;;;;;4194507;28;20748;-68
2022/06/01 07:49:11;;;;;;;1.77;1.30;;;17.00;48.00;;;;;;4194700;28;20186;-68
2022/06/01 07:51:11;;;;;;;2.30;1.30;;;17.00;47.30;;;;;;4194681;28;20196;-68
2022/06/01 07:53:12;;;;;;;2.87;1.20;;;17.20;46.30;;;;;;4194407;28;20207;-68
2022/06/01 07:55:13;;;;;;;2.57;1.40;;;17.20;44.10;;;;;;4195537;28;20192;-68
2022/06/01 07:57:13;;;;;;;2.90;1.40;;;17.10;44.30;;;;;;4197406;28;20192;-67
2022/06/01 07:59:14;;;;;;;1.40;1.30;;;16.90;44.60;;;;;;4197570;28;20215;-69
2022/06/01 08:01:14;;;;;;;2.00;1.57;;;16.90;44.50;;;;;;4197384;28;20175;-67
2022/06/01 08:03:17;;;;;;;1.70;1.60;;;16.80;45.60;;;;;;4197701;28;20206;-67
2022/06/01 08:05:20;;;;;;;3.03;2.30;;;17.00;45.10;;;;;;4197228;28;20256;-68
2022/06/01 08:07:22;;;;;;;1.43;1.30;;;17.20;44.40;;;;;;4197529;28;20183;-68
2022/06/01 08:09:22;;;;;;;2.17;1.73;;;17.20;44.70;;;;;;4197910;28;20266;-68
2022/06/01 08:13:06;;;;;;;1.60;1.20;;;17.50;43.80;;;;;;4197614;28;20714;-69
2022/06/01 08:13:44;;;;;;;1.50;1.10;;;17.40;43.00;;;;;;4197021;28;20238;-67
2022/06/01 08:15:47;;;;;;;2.30;1.23;;;17.30;43.10;;;;;;4196412;28;20631;-67
2022/06/01 08:17:48;;;;;;;3.73;1.40;;;17.40;42.50;;;;;;4195709;28;20176;-67
2022/06/01 08:19:48;;;;;;;1.30;1.20;;;17.50;42.30;;;;;;4196046;28;20274;-69
2022/06/01 08:21:49;;;;;;;1.43;1.30;;;17.70;43.30;;;;;;4197287;28;20631;-68
2022/06/01 08:23:49;;;;;;;1.73;1.30;;;18.00;43.10;;;;;;4197051;28;20225;-68
2022/06/01 08:25:50;;;;;;;2.67;1.30;;;17.90;41.40;;;;;;4196352;28;20581;-68
2022/06/01 08:27:51;;;;;;;1.33;1.23;;;17.90;41.40;;;;;;4196458;28;20176;-68
2022/06/01 08:29:52;;;;;;;1.63;1.50;;;17.90;42.10;;;;;;4196490;28;20184;-68
2022/06/01 08:31:52;;;;;;;1.50;1.40;;;17.70;41.40;;;;;;4196838;28;20186;-68
2022/06/01 08:33:54;;;;;;;2.20;1.40;;;17.40;42.10;;;;;;4196689;28;20253;-68
2022/06/01 08:35:55;;;;;;;1.63;1.43;;;17.40;42.90;;;;;;4196217;28;20183;-68
2022/06/01 08:37:56;;;;;;;2.07;1.30;;;17.40;42.60;;;;;;4196738;28;20190;-68
2022/06/01 08:39:57;;;;;;;1.67;1.30;;;17.50;43.20;;;;;;4196538;28;20180;-68
2022/06/01 08:42:00;;;;;;;2.40;1.37;;;17.80;41.80;;;;;;4196801;28;20754;-68
2022/06/01 08:44:13;;;;;;;1.30;1.10;;;18.40;42.70;;;;;;4196557;28;20206;-68
2022/06/01 08:46:15;;;;;;;2.40;1.30;;;18.90;40.90;;;;;;4196067;28;20194;-68
2022/06/01 08:48:19;;;;;;;1.43;1.33;;;18.90;42.00;;;;;;4196685;28;20550;-68
2022/06/01 08:50:30;;;;;;;4.87;1.80;;;18.90;39.20;;;;;;4196545;28;20219;-68
2022/06/01 08:52:31;;;;;;;2.83;1.07;;;18.70;40.00;;;;;;4196639;28;20198;-68
2022/06/01 08:54:32;;;;;;;1.37;1.20;;;18.40;40.20;;;;;;4196564;28;20237;-68
2022/06/01 08:56:54;;;;;;;1.93;1.40;;;18.50;40.80;;;;;;4195834;28;20266;-68
2022/06/01 08:59:09;;;;;;;2.00;1.47;;;18.30;40.80;;;;;;4195392;28;20172;-68
2022/06/01 09:01:29;;;;;;;1.53;1.43;;;18.30;41.10;;;;;;4196436;28;20419;-68
2022/06/01 09:03:48;;;;;;;2.17;1.70;;;18.30;41.70;;;;;;4195866;28;20226;-68
2022/06/01 09:05:52;;;;;;;2.63;1.13;;;18.60;40.80;;;;;;4195667;28;20203;-68
2022/06/01 09:08:09;;;;;;;2.50;1.50;;;18.60;40.80;;;;;;4195783;28;20180;-68
2022/06/01 09:10:41;;;;;;;1.63;1.30;;;18.50;42.20;;;;;;4196515;28;20162;-68
2022/06/01 09:12:43;;;;;;;2.33;2.20;;;18.70;41.40;;;;;;4196377;28;20216;-68
2022/06/01 09:14:48;;;;;;;2.40;1.73;;;18.40;41.00;;;;;;4196380;28;20631;-68
2022/06/01 09:16:57;;;;;;;2.30;1.70;;;18.10;42.10;;;;;;4196200;28;20176;-68
2022/06/01 09:18:59;;;;;;;1.90;1.70;;;18.10;42.20;;;;;;4197407;28;20167;-68
2022/06/01 09:23:19;;;;;;;2.10;1.80;;;18.60;40.70;;;;;;4196513;28;20684;-68
2022/06/01 09:25:27;;;;;;;1.40;1.30;;;18.90;40.30;;;;;;4196888;28;20203;-68
2022/06/01 09:27:39;;;;;;;1.67;1.50;;;18.90;39.60;;;;;;4197083;28;20190;-68
2022/06/01 09:29:48;;;;;;;1.80;1.60;;;18.70;40.40;;;;;;4196873;28;20211;-68
2022/06/01 09:31:54;;;;;;;1.60;1.40;;;18.60;41.30;;;;;;4196953;28;20209;-68
2022/06/01 09:34:19;;;;;;;2.23;2.10;;;18.80;40.00;;;;;;4196697;28;20618;-68
2022/06/01 09:36:27;;;;;;;2.10;1.90;;;19.20;38.40;;;;;;4196498;28;20172;-68
2022/06/01 09:38:47;;;;;;;3.60;1.63;;;19.20;38.70;;;;;;4196820;28;20257;-68
2022/06/01 09:41:03;;;;;;;1.50;1.30;;;19.00;39.10;;;;;;4196610;28;20175;-68
2022/06/01 09:43:04;;;;;;;2.00;1.80;;;18.90;39.50;;;;;;4196682;28;20199;-68
2022/06/01 09:45:22;;;;;;;1.60;1.50;;;18.90;39.50;;;;;;4195781;28;20674;-68
2022/06/01 09:47:43;;;;;;;1.83;1.67;;;18.30;40.30;;;;;;4196941;28;20170;-69
2022/06/01 09:49:53;;;;;;;2.53;2.30;;;18.70;39.60;;;;;;4196616;28;20183;-68
2022/06/01 09:52:02;;;;;;;3.13;2.53;;;19.00;39.10;;;;;;4196737;28;20190;-67
2022/06/01 09:54:27;;;;;;;3.67;2.50;;;19.00;39.00;;;;;;4196957;28;20570;-68
2022/06/01 09:56:34;;;;;;;1.93;1.80;;;18.80;39.70;;;;;;4195789;28;20289;-68
2022/06/01 10:08:13;;;;;;;3.57;1.40;;;19.20;38.90;;;;;;4195588;28;20163;-68
2022/06/01 10:10:24;;;;;;;1.73;1.37;;;19.50;38.60;;;;;;4195498;28;20158;-68
2022/06/01 10:12:47;;;;;;;2.20;1.40;;;19.80;37.20;;;;;;4195301;28;20184;-68
2022/06/01 10:14:53;;;;;;;3.10;1.60;;;19.90;37.00;;;;;;4195627;28;20258;-68
2022/06/01 10:17:09;;;;;;;2.97;1.40;;;19.90;36.90;;;;;;4194407;28;20218;-68
2022/06/01 10:19:12;;;;;;;2.17;1.47;;;20.40;37.70;;;;;;4195067;28;20586;-68
2022/06/01 10:21:18;;;;;;;3.87;1.43;;;20.40;37.00;;;;;;4195168;28;20188;-68
2022/06/01 10:23:30;;;;;;;3.70;1.53;;;20.90;37.60;;;;;;4195199;28;20199;-68
2022/06/01 10:25:38;;;;;;;1.93;1.50;;;21.30;35.40;;;;;;4194642;28;20249;-67
2022/06/01 10:27:45;;;;;;;2.93;1.83;;;20.10;37.20;;;;;;4195475;28;20214;-68
2022/06/01 10:29:50;;;;;;;2.27;1.30;;;20.00;37.50;;;;;;4194741;28;20176;-68
2022/06/01 10:32:09;;;;;;;3.07;2.00;;;19.80;37.60;;;;;;4195112;28;20180;-68
2022/06/01 10:34:33;;;;;;;1.97;1.73;;;19.70;36.90;;;;;;4194961;28;20232;-68
2022/06/01 10:37:12;;;;;;;2.07;1.87;;;19.70;37.20;;;;;;4194482;28;20642;-68
2022/06/01 10:39:32;;;;;;;1.70;1.60;;;19.40;37.40;;;;;;4195227;28;20254;-68
2022/06/01 10:41:44;;;;;;;2.03;1.50;;;19.10;38.60;;;;;;4195285;28;20250;-68
2022/06/01 10:43:50;;;;;;;1.80;1.70;;;19.30;39.20;;;;;;4195476;28;20243;-68
2022/06/01 10:46:00;;;;;;;2.80;2.60;;;19.50;38.10;;;;;;4194169;28;20204;-68
2022/06/01 10:48:16;;;;;;;1.90;1.53;;;19.30;37.40;;;;;;4195027;28;20183;-68
2022/06/01 10:50:24;;;;;;;1.90;1.20;;;18.80;38.60;;;;;;4194968;28;20183;-68
2022/06/01 10:52:48;;;;;;;2.77;1.77;;;19.00;38.70;;;;;;4195112;28;20179;-68
2022/06/01 10:55:08;;;;;;;3.47;1.97;;;19.20;38.20;;;;;;4195199;28;20180;-67
2022/06/01 10:57:13;;;;;;;3.53;3.33;;;18.90;39.40;;;;;;4194576;28;20674;-67
2022/06/01 10:59:16;;;;;;;1.50;1.40;;;18.70;39.20;;;;;;4195205;28;20171;-68
2022/06/01 11:01:40;;;;;;;1.60;1.50;;;18.80;39.30;;;;;;4195019;28;20661;-67
2022/06/01 11:03:58;;;;;;;2.80;1.40;;;18.90;38.80;;;;;;4195042;28;20199;-67
2022/06/01 11:06:26;;;;;;;3.37;1.63;;;18.90;39.20;;;;;;4194154;28;20231;-68
2022/06/01 11:08:59;;;;;;;2.30;2.10;;;18.70;39.80;;;;;;4194936;28;20169;-68
2022/06/01 11:11:18;;;;;;;2.07;1.70;;;18.50;39.20;;;;;;4193799;28;20195;-68
2022/06/01 11:13:41;;;;;;;2.37;1.40;;;18.50;39.70;;;;;;4194670;28;20228;-68
2022/06/01 11:16:07;;;;;;;1.87;1.33;;;18.70;39.40;;;;;;4194180;28;20536;-67
2022/06/01 11:18:36;;;;;;;1.90;1.50;;;18.70;39.10;;;;;;4194932;28;20183;-67
2022/06/01 11:20:51;;;;;;;2.07;1.60;;;18.70;39.30;;;;;;4194658;28;20662;-68